PH-0042 weather

San Miguel Corporate Heliport
Mandaluyong, Philippines

Public forecast

Using degrees Celsius for public forecast. Weather courtesy of forecast.io.

METAR (pilot weather report)

Closest report is Ninoy Aquino International Airport, 5.0 nm (9.3 km) SSW. Retrieved 2019/07/15 19:00 UTC (15 minutes ago):

RPLL 151900Z 22004KT 7000 -RA SCT022 OVC090 25/24 Q1005 TEMPO 6000 RA RMK A2968

TAF (pilot weather forecast)

Closest forecast is Ninoy Aquino International Airport, 5.0 nm (9.3 km) SSW. Retrieved 2019/07/15 18:00 UTC (1 hour ago):

TAF RPLL 151700Z 1518/1624 25006KT 9000 SCT023 BKN090 TX30/1606Z TN25/1521Z TEMPO 1518/1524 30004KT 7000 -RA SCT022 OVC090 TEMPO 1600/1606 29010KT 8000 -RA SCT020 OVC080